createdAt,value
2018-04-23T14:03:32.731Z,2.27
2018-04-23T14:05:59.169Z,2.20
2018-04-23T14:08:25.431Z,2.60
2018-04-23T14:10:51.746Z,1.77
2018-04-23T14:13:18.008Z,2.03
2018-04-23T14:15:44.435Z,1.53
2018-04-23T14:18:10.739Z,1.73
2018-04-23T14:20:37.025Z,2.23
2018-04-23T14:23:03.300Z,2.00
2018-04-23T14:25:29.662Z,3.20
2018-04-23T14:27:55.938Z,1.73
2018-04-23T14:30:22.232Z,1.63
2018-04-23T14:32:48.645Z,1.60
2018-04-23T14:35:14.991Z,1.77
2018-04-23T14:37:41.320Z,1.83
2018-04-23T14:40:07.644Z,1.83
2018-04-23T14:42:33.939Z,1.87
2018-04-23T14:45:00.240Z,3.03
2018-04-23T14:47:26.674Z,2.50
2018-04-23T14:49:52.994Z,1.43
2018-04-23T14:52:19.301Z,2.00
2018-04-23T14:54:45.651Z,1.63
2018-04-23T14:57:11.927Z,1.50
2018-04-23T14:59:38.217Z,1.67
2018-04-23T15:02:04.641Z,1.73
2018-04-23T15:04:31.360Z,2.10
2018-04-23T15:06:57.657Z,1.63
2018-04-23T15:09:24.020Z,1.60
2018-04-23T15:11:52.184Z,1.80
2018-04-23T15:14:18.452Z,1.87
2018-04-23T15:16:44.783Z,3.00
2018-04-23T15:19:11.082Z,2.90
2018-04-23T15:21:37.354Z,2.50
2018-04-23T15:24:03.762Z,1.70
2018-04-23T15:26:30.023Z,1.57
2018-04-23T15:28:56.384Z,1.40
2018-04-23T15:31:22.660Z,1.47
2018-04-23T15:33:48.936Z,1.80
2018-04-23T15:36:15.324Z,2.13
2018-04-23T15:38:41.611Z,1.77
2018-04-23T15:41:07.889Z,1.40
2018-04-23T15:43:37.346Z,1.80
2018-04-23T15:46:03.625Z,1.90
2018-04-23T15:48:29.895Z,1.90
2018-04-23T15:50:56.212Z,1.90
2018-04-23T15:53:22.565Z,1.90
2018-04-23T15:55:49.002Z,3.10
2018-04-23T15:58:15.260Z,2.67
2018-04-23T16:00:41.531Z,2.10
2018-04-23T16:03:07.850Z,3.30
2018-04-23T16:05:34.355Z,2.40
2018-04-23T16:08:00.630Z,2.30
2018-04-23T16:10:26.936Z,2.43
2018-04-23T16:12:53.249Z,3.77
2018-04-23T16:15:19.560Z,3.80
2018-04-23T16:17:46.417Z,4.80
2018-04-23T16:20:12.686Z,4.07
2018-04-23T16:22:38.975Z,4.13
2018-04-23T16:25:06.465Z,3.97
2018-04-23T16:27:32.726Z,3.13
2018-04-23T16:29:59.749Z,2.73
2018-04-23T16:32:25.999Z,4.20
2018-04-23T16:34:52.267Z,4.90
2018-04-23T16:37:18.682Z,4.70
2018-04-23T16:39:44.974Z,4.73
2018-04-23T16:42:11.344Z,4.20
2018-04-23T16:44:39.417Z,4.43
2018-04-23T16:47:03.944Z,4.10
2018-04-23T16:49:30.338Z,4.50
2018-04-23T16:51:56.762Z,6.37
2018-04-23T16:54:23.155Z,6.47
2018-04-23T16:56:49.805Z,8.37
2018-04-23T16:59:16.485Z,6.17
2018-04-23T17:01:42.753Z,9.37
2018-04-23T17:04:09.018Z,7.77
2018-04-23T17:06:35.330Z,6.87
2018-04-23T17:09:01.622Z,6.17
2018-04-23T17:11:28.748Z,7.13
2018-04-23T17:13:55.090Z,6.00
2018-04-23T17:16:21.364Z,5.87
2018-04-23T17:18:47.749Z,4.70
2018-04-23T17:21:14.037Z,2.77
2018-04-23T17:23:40.735Z,23.30
2018-04-23T17:26:07.135Z,9.60
2018-04-23T17:28:33.911Z,9.50
2018-04-23T17:31:00.335Z,8.07
2018-04-23T17:33:26.780Z,20.27
2018-04-23T17:35:54.011Z,27.00
2018-04-23T17:38:20.343Z,11.60
2018-04-23T17:40:47.222Z,5.93
2018-04-23T17:43:14.554Z,7.17
2018-04-23T17:45:40.834Z,3.37
2018-04-23T17:48:07.182Z,4.60
2018-04-23T17:50:33.570Z,14.13
2018-04-23T17:52:59.852Z,15.60
2018-04-23T17:55:26.231Z,29.63
2018-04-23T17:57:52.503Z,39.07
2018-04-23T18:00:18.775Z,9.07
2018-04-23T18:02:45.151Z,7.57
2018-04-23T18:05:11.451Z,4.07
2018-04-23T18:07:37.830Z,4.30
2018-04-23T18:10:04.118Z,11.07
2018-04-23T18:12:30.431Z,8.00
2018-04-23T18:14:56.870Z,5.23
2018-04-23T18:17:23.256Z,5.50
2018-04-23T18:19:49.530Z,7.67
2018-04-23T18:22:18.669Z,9.60
2018-04-23T18:24:44.960Z,8.63
2018-04-23T18:27:11.301Z,6.90
2018-04-23T18:29:37.629Z,6.70
2018-04-23T18:32:03.978Z,6.97
2018-04-23T18:34:30.392Z,4.80
2018-04-23T18:36:56.851Z,6.13
2018-04-23T18:39:23.143Z,7.63
2018-04-23T18:41:49.468Z,7.93
2018-04-23T18:44:15.854Z,5.50
2018-04-23T18:46:42.152Z,6.00
2018-04-23T18:49:08.488Z,6.27
2018-04-23T18:51:34.770Z,7.27
2018-04-23T18:54:01.115Z,11.57
2018-04-23T18:56:27.484Z,11.33
2018-04-23T18:58:53.983Z,10.90
2018-04-23T19:01:20.259Z,9.67
2018-04-23T19:03:46.725Z,17.40
2018-04-23T19:06:13.056Z,14.03
2018-04-23T19:08:39.338Z,17.17
2018-04-23T19:11:05.740Z,17.97
2018-04-23T19:13:32.037Z,16.40
2018-04-23T19:15:58.433Z,11.63
2018-04-23T19:18:25.070Z,31.30
2018-04-23T19:20:51.529Z,12.63
2018-04-23T19:23:17.875Z,10.13
2018-04-23T19:25:44.174Z,8.33
2018-04-23T19:28:11.613Z,9.70
2018-04-23T19:30:37.912Z,8.93
2018-04-23T19:33:04.217Z,9.93
2018-04-23T19:35:30.809Z,12.03
2018-04-23T19:37:57.219Z,12.70
2018-04-23T19:40:23.488Z,14.43
2018-04-23T19:42:49.877Z,6.47
2018-04-23T19:45:16.351Z,7.77
2018-04-23T19:47:42.689Z,6.37
2018-04-23T19:50:09.016Z,6.73
2018-04-23T19:52:35.440Z,6.90
2018-04-23T19:55:01.753Z,5.50
2018-04-23T19:57:29.194Z,5.07
2018-04-23T19:59:55.905Z,5.10
2018-04-23T20:02:22.361Z,4.57
2018-04-23T20:04:48.732Z,5.37
2018-04-23T20:07:30.133Z,5.03
2018-04-23T20:09:56.504Z,5.40
2018-04-23T20:12:22.835Z,6.23
2018-04-23T20:14:49.142Z,8.37
2018-04-23T20:17:15.547Z,9.37
2018-04-23T20:19:41.869Z,6.60
2018-04-23T20:22:08.148Z,12.33
2018-04-23T20:24:34.428Z,10.00
2018-04-23T20:27:00.952Z,7.80
2018-04-23T20:29:28.140Z,6.10
2018-04-23T20:31:54.442Z,5.47
2018-04-23T20:34:20.804Z,6.30
2018-04-23T20:36:47.105Z,4.67
2018-04-23T20:39:13.381Z,4.50
2018-04-23T20:41:39.767Z,4.83
2018-04-23T20:44:06.067Z,5.63
2018-04-23T20:46:32.627Z,5.13
2018-04-23T20:48:58.927Z,6.00
2018-04-23T20:51:25.290Z,7.00
2018-04-23T20:53:51.577Z,7.17
2018-04-23T20:56:20.999Z,7.27
2018-04-23T20:58:47.702Z,7.83
2018-04-23T21:01:14.039Z,8.77
2018-04-23T21:03:40.348Z,11.37
2018-04-23T21:06:06.673Z,18.30
2018-04-23T21:08:32.996Z,23.63
2018-04-23T21:10:59.303Z,9.67
2018-04-23T21:13:25.682Z,8.73
2018-04-23T21:15:52.800Z,7.00
2018-04-23T21:18:19.070Z,7.07
2018-04-23T21:20:45.381Z,6.67
2018-04-23T21:23:11.850Z,5.93
2018-04-23T21:25:38.155Z,6.37
2018-04-23T21:28:04.513Z,4.67
2018-04-23T21:30:30.801Z,18.73
2018-04-23T21:32:57.102Z,11.23
2018-04-23T21:35:23.654Z,6.60
2018-04-23T21:37:49.924Z,6.43
2018-04-23T21:40:16.215Z,7.20
2018-04-23T21:42:42.722Z,6.17
2018-04-23T21:45:08.989Z,6.50
2018-04-23T21:47:35.285Z,6.30
2018-04-23T21:50:01.564Z,6.00
2018-04-23T21:52:27.845Z,6.10
2018-04-23T21:54:57.403Z,6.37
2018-04-23T21:57:24.462Z,5.07
2018-04-23T21:59:50.733Z,5.47
2018-04-23T22:02:17.396Z,5.00
2018-04-23T22:04:43.658Z,5.37
2018-04-23T22:07:09.986Z,4.43
2018-04-23T22:09:36.251Z,5.27
2018-04-23T22:12:02.532Z,4.60
2018-04-23T22:14:29.151Z,5.40
2018-04-23T22:16:55.468Z,5.40
2018-04-23T22:19:21.738Z,5.10
2018-04-23T22:21:48.175Z,5.57
2018-04-23T22:24:14.451Z,5.60
2018-04-23T22:26:40.776Z,5.10
2018-04-23T22:29:07.055Z,5.93
2018-04-23T22:31:33.677Z,4.67
2018-04-23T22:33:59.938Z,4.67
2018-04-23T22:36:26.215Z,4.20
2018-04-23T22:38:52.540Z,4.87
2018-04-23T22:41:18.821Z,7.67
2018-04-23T22:43:45.096Z,6.60
2018-04-23T22:46:11.438Z,6.00
2018-04-23T22:48:37.731Z,6.07
2018-04-23T22:51:04.023Z,5.70
2018-04-23T22:53:30.966Z,5.53
2018-04-23T22:55:57.233Z,6.47
2018-04-23T22:58:23.617Z,6.20
2018-04-23T23:00:49.975Z,6.00
2018-04-23T23:03:16.408Z,5.80
2018-04-23T23:05:42.678Z,5.20
2018-04-23T23:08:08.984Z,4.70
2018-04-23T23:10:35.241Z,5.77
2018-04-23T23:13:01.553Z,5.17
2018-04-23T23:15:28.250Z,4.70
2018-04-23T23:17:54.519Z,4.87
2018-04-23T23:20:20.781Z,4.90
2018-04-23T23:22:47.081Z,5.23
2018-04-23T23:25:13.354Z,6.17
2018-04-23T23:27:39.613Z,7.87
2018-04-23T23:30:05.940Z,6.23
2018-04-23T23:32:32.223Z,5.73
2018-04-23T23:34:58.492Z,4.93
2018-04-23T23:37:25.228Z,5.43
2018-04-23T23:39:51.568Z,5.30
2018-04-23T23:42:17.861Z,5.60
2018-04-23T23:44:44.190Z,5.10
2018-04-23T23:47:10.538Z,5.50
2018-04-23T23:49:36.799Z,5.00
2018-04-23T23:52:03.051Z,5.77
2018-04-23T23:54:29.761Z,5.47
2018-04-23T23:56:56.292Z,5.23
2018-04-23T23:59:22.723Z,5.00
